createdAt,value
2023-04-02T00:28:13.349Z,10
2023-04-02T00:58:13.297Z,14
2023-04-02T01:28:13.039Z,8
2023-04-02T01:58:13.249Z,10
2023-04-02T02:28:12.929Z,8
2023-04-02T03:28:14.116Z,14
2023-04-02T03:58:13.120Z,12
2023-04-02T04:28:12.747Z,12
2023-04-02T04:58:13.497Z,10
2023-04-02T05:28:12.776Z,16
2023-04-02T05:58:34.370Z,10
2023-04-02T06:28:13.514Z,8
2023-04-02T06:58:12.663Z,16
2023-04-02T07:28:12.755Z,16
2023-04-02T07:58:12.799Z,14
2023-04-02T08:28:12.456Z,18
2023-04-02T08:58:12.975Z,12
2023-04-02T09:28:17.200Z,8
2023-04-02T09:58:12.758Z,6
2023-04-02T10:28:12.981Z,8
2023-04-02T10:58:12.861Z,8
2023-04-02T11:28:12.472Z,6
2023-04-02T12:28:12.508Z,4
2023-04-02T12:58:12.423Z,6
2023-04-02T13:28:12.635Z,8
2023-04-02T13:58:12.269Z,6
2023-04-02T14:28:11.885Z,8
2023-04-02T14:58:12.056Z,6
2023-04-02T15:28:12.210Z,8
2023-04-02T15:58:12.078Z,6
2023-04-02T16:28:12.586Z,14
2023-04-02T16:58:12.181Z,8
2023-04-02T17:28:12.077Z,12
2023-04-02T17:58:12.280Z,36
2023-04-02T18:28:12.170Z,16
2023-04-02T18:58:11.761Z,18
2023-04-02T19:28:12.251Z,36
2023-04-02T19:58:19.056Z,30
2023-04-02T20:28:12.054Z,22
2023-04-02T20:58:11.793Z,86
2023-04-02T21:28:11.684Z,56
2023-04-02T21:58:11.436Z,38
2023-04-02T22:28:12.247Z,42
2023-04-02T22:58:11.463Z,32
2023-04-02T23:28:11.418Z,34
